createdAt,value
2017-10-19T00:02:28.137Z,78.70
2017-10-19T00:04:55.606Z,78.60
2017-10-19T00:07:23.086Z,78.70
2017-10-19T00:09:50.562Z,78.80
2017-10-19T00:12:18.796Z,78.80
2017-10-19T00:14:46.378Z,78.70
2017-10-19T00:17:13.848Z,78.90
2017-10-19T00:19:42.082Z,78.90
2017-10-19T00:22:09.559Z,78.80
2017-10-19T00:24:37.841Z,79.30
2017-10-19T00:27:05.314Z,79.20
2017-10-19T00:29:33.552Z,79.30
2017-10-19T00:32:01.134Z,79.40
2017-10-19T00:34:28.600Z,79.40
2017-10-19T00:36:56.844Z,79.30
2017-10-19T00:39:24.424Z,79.30
2017-10-19T00:41:51.890Z,79.60
2017-10-19T00:44:20.134Z,80.70
2017-10-19T00:46:47.615Z,79.80
2017-10-19T00:49:15.086Z,79.90
2017-10-19T00:51:43.325Z,79.70
2017-10-19T00:54:10.806Z,79.60
2017-10-19T00:56:39.052Z,79.60
2017-10-19T00:59:06.539Z,79.60
2017-10-19T01:01:34.861Z,80.50
2017-10-19T01:04:02.346Z,79.60
2017-10-19T01:06:29.804Z,79.80
2017-10-19T01:08:57.378Z,79.50
2017-10-19T01:11:24.945Z,79.70
2017-10-19T01:13:53.224Z,80.10
2017-10-19T01:16:21.462Z,79.90
2017-10-19T01:18:48.926Z,79.80
2017-10-19T01:21:16.516Z,80.00
2017-10-19T01:23:44.750Z,80.20
2017-10-19T01:26:12.228Z,80.10
2017-10-19T01:28:39.781Z,80.10
2017-10-19T01:31:07.257Z,80.20
2017-10-19T01:33:34.746Z,80.20
2017-10-19T01:36:02.421Z,80.20
2017-10-19T01:38:29.890Z,80.30
2017-10-19T01:40:57.366Z,80.30
2017-10-19T01:43:24.845Z,80.30
2017-10-19T01:45:52.315Z,80.30
2017-10-19T01:48:20.550Z,80.50
2017-10-19T01:50:48.031Z,80.30
2017-10-19T01:53:15.497Z,81.20
2017-10-19T01:55:43.747Z,80.40
2017-10-19T01:58:11.327Z,80.20
2017-10-19T02:00:38.789Z,80.30
2017-10-19T02:03:07.246Z,80.10
2017-10-19T02:05:34.714Z,80.00
2017-10-19T02:08:02.992Z,80.00
2017-10-19T02:10:30.462Z,79.90
2017-10-19T02:12:58.728Z,80.20
2017-10-19T02:15:26.989Z,80.20
2017-10-19T02:17:54.549Z,80.20
2017-10-19T02:20:22.022Z,80.40
2017-10-19T02:22:50.290Z,80.60
2017-10-19T02:25:17.754Z,80.50
2017-10-19T02:27:46.017Z,80.60
2017-10-19T02:30:13.589Z,80.40
2017-10-19T02:32:41.851Z,80.50
2017-10-19T02:35:09.414Z,80.30
2017-10-19T02:37:37.662Z,80.80
2017-10-19T02:40:05.144Z,80.30
2017-10-19T02:42:33.382Z,80.50
2017-10-19T02:45:00.868Z,80.40
2017-10-19T02:47:29.128Z,80.40
2017-10-19T02:49:57.071Z,80.30
2017-10-19T02:52:24.584Z,80.30
2017-10-19T02:54:52.869Z,80.40
2017-10-19T02:57:20.321Z,80.20
2017-10-19T02:59:48.570Z,80.30
2017-10-19T03:02:16.045Z,80.20
2017-10-19T03:04:44.298Z,80.20
2017-10-19T03:07:11.766Z,80.20
2017-10-19T03:09:39.279Z,80.20
2017-10-19T03:12:06.747Z,80.20
2017-10-19T03:14:34.237Z,80.20
2017-10-19T03:17:01.746Z,80.20
2017-10-19T03:19:29.254Z,81.10
2017-10-19T03:21:56.724Z,80.00
2017-10-19T03:24:24.974Z,80.10
2017-10-19T03:26:52.555Z,80.00
2017-10-19T03:29:20.803Z,80.00
2017-10-19T03:31:48.378Z,80.00
2017-10-19T03:34:15.939Z,80.00
2017-10-19T03:36:43.427Z,80.00
2017-10-19T03:39:10.911Z,80.10
2017-10-19T03:41:38.409Z,80.10
2017-10-19T03:44:05.889Z,80.10
2017-10-19T03:46:34.136Z,80.00
2017-10-19T03:49:02.507Z,80.10
2017-10-19T03:51:30.789Z,80.00
2017-10-19T03:53:59.038Z,80.30
2017-10-19T03:56:26.519Z,80.30
2017-10-19T03:58:54.085Z,80.30
2017-10-19T04:01:21.561Z,80.30
2017-10-19T04:03:49.873Z,80.40
2017-10-19T04:06:17.369Z,80.30
2017-10-19T04:08:44.854Z,80.50
2017-10-19T04:11:13.165Z,80.70
2017-10-19T04:13:40.662Z,80.60
2017-10-19T04:16:08.231Z,80.40
2017-10-19T04:18:35.717Z,81.20
2017-10-19T04:21:03.200Z,81.40
2017-10-19T04:23:30.682Z,81.00
2017-10-19T04:25:58.164Z,81.10
2017-10-19T04:28:26.404Z,81.20
2017-10-19T04:30:53.902Z,81.10
2017-10-19T04:33:22.142Z,81.40
2017-10-19T04:35:49.618Z,81.40
2017-10-19T04:38:17.092Z,81.50
2017-10-19T04:40:45.337Z,81.60
2017-10-19T04:43:12.830Z,81.60
2017-10-19T04:45:41.077Z,81.40
2017-10-19T04:48:08.547Z,81.50
2017-10-19T04:50:36.804Z,82.00
2017-10-19T04:53:04.370Z,81.00
2017-10-19T04:55:31.961Z,81.30
2017-10-19T04:57:59.462Z,81.30
2017-10-19T05:00:26.954Z,81.20
2017-10-19T05:02:55.227Z,81.30
2017-10-19T05:05:22.740Z,81.10
2017-10-19T05:07:50.223Z,81.00
2017-10-19T05:10:17.706Z,81.00
2017-10-19T05:12:45.959Z,81.10
2017-10-19T05:15:13.540Z,81.00
2017-10-19T05:17:41.862Z,81.40
2017-10-19T05:20:09.335Z,81.20
2017-10-19T05:22:36.816Z,81.30
2017-10-19T05:25:05.118Z,81.30
2017-10-19T05:27:33.377Z,81.40
2017-10-19T05:30:01.622Z,81.60
2017-10-19T05:32:29.128Z,81.50
2017-10-19T05:34:57.394Z,81.60
2017-10-19T05:37:25.650Z,81.60
2017-10-19T05:39:53.157Z,81.60
2017-10-19T05:42:20.771Z,81.70
2017-10-19T05:44:48.251Z,81.50
2017-10-19T05:47:16.507Z,81.60
2017-10-19T05:49:43.986Z,81.40
2017-10-19T05:52:11.470Z,81.90
2017-10-19T05:54:38.954Z,82.10
2017-10-19T05:57:06.437Z,82.20
2017-10-19T05:59:34.706Z,83.30
2017-10-19T06:02:02.216Z,82.60
2017-10-19T06:04:29.709Z,82.70
2017-10-19T06:06:57.349Z,83.00
2017-10-19T06:09:24.830Z,83.00
2017-10-19T06:11:52.306Z,83.00
2017-10-19T06:14:20.584Z,83.20
2017-10-19T06:16:48.823Z,84.40
2017-10-19T06:19:16.302Z,83.50
2017-10-19T06:21:43.862Z,83.50
2017-10-19T06:24:11.465Z,83.50
2017-10-19T06:26:38.990Z,83.40
2017-10-19T06:29:07.239Z,84.20
2017-10-19T06:31:34.814Z,84.20
2017-10-19T06:34:02.298Z,84.30
2017-10-19T06:36:29.837Z,84.10
2017-10-19T06:38:58.102Z,83.70
2017-10-19T06:41:25.682Z,83.60
2017-10-19T06:43:53.923Z,83.40
2017-10-19T06:46:21.398Z,83.40
2017-10-19T06:48:48.875Z,83.40
2017-10-19T06:51:17.116Z,83.00
2017-10-19T06:53:44.686Z,83.00
2017-10-19T06:56:12.244Z,82.90
2017-10-19T06:58:39.727Z,82.70
2017-10-19T07:01:07.980Z,82.10
2017-10-19T07:03:35.452Z,82.10
2017-10-19T07:06:03.676Z,81.90
2017-10-19T07:08:31.174Z,81.90
2017-10-19T07:10:58.674Z,81.90
2017-10-19T07:13:26.181Z,82.20
2017-10-19T07:15:54.431Z,82.30
2017-10-19T07:18:21.918Z,82.30
2017-10-19T07:20:49.382Z,82.50
2017-10-19T07:23:17.630Z,82.70
2017-10-19T07:25:45.103Z,82.60
2017-10-19T07:28:12.588Z,82.40
2017-10-19T07:30:40.818Z,81.90
2017-10-19T07:33:08.389Z,81.90
2017-10-19T07:35:35.870Z,81.50
2017-10-19T07:38:04.127Z,81.70
2017-10-19T07:40:31.609Z,81.50
2017-10-19T07:42:59.862Z,82.30
2017-10-19T07:45:27.418Z,81.30
2017-10-19T07:47:54.895Z,82.20
2017-10-19T07:50:23.204Z,80.90
2017-10-19T07:52:50.692Z,80.90
2017-10-19T07:55:18.286Z,81.00
2017-10-19T07:57:46.563Z,81.50
2017-10-19T08:00:14.815Z,82.50
2017-10-19T08:02:42.289Z,81.60
2017-10-19T08:05:12.343Z,82.20
2017-10-19T08:07:39.834Z,82.10
2017-10-19T08:10:07.415Z,82.00
2017-10-19T08:12:35.658Z,81.30
2017-10-19T08:15:03.220Z,81.20
2017-10-19T08:17:30.812Z,81.20
2017-10-19T08:19:58.358Z,81.80
2017-10-19T08:22:25.837Z,82.00
2017-10-19T08:24:54.104Z,81.90
2017-10-19T08:27:22.352Z,82.10
2017-10-19T08:29:49.826Z,82.00
2017-10-19T08:32:17.306Z,82.00
2017-10-19T08:34:45.552Z,81.30
2017-10-19T08:37:14.536Z,80.90
2017-10-19T08:39:42.012Z,80.90
2017-10-19T08:42:09.478Z,81.00
2017-10-19T08:44:37.718Z,80.40
2017-10-19T08:47:05.299Z,80.40
2017-10-19T08:49:33.556Z,81.10
2017-10-19T08:52:01.025Z,81.00
2017-10-19T08:54:28.494Z,81.10
2017-10-19T08:56:56.040Z,81.20
2017-10-19T08:59:23.638Z,81.30
2017-10-19T09:01:51.162Z,82.50
2017-10-19T09:04:20.151Z,81.20
2017-10-19T09:06:47.705Z,81.20
2017-10-19T09:09:15.265Z,81.10
2017-10-19T09:11:42.736Z,81.30
2017-10-19T09:14:10.227Z,81.30
2017-10-19T09:16:37.745Z,80.80
2017-10-19T09:19:05.258Z,80.20
2017-10-19T09:21:32.759Z,80.60
2017-10-19T09:24:01.004Z,80.60
2017-10-19T09:26:28.480Z,80.40
2017-10-19T09:28:57.475Z,81.10
2017-10-19T09:31:24.955Z,81.00
2017-10-19T09:33:53.210Z,81.90
2017-10-19T09:36:20.769Z,81.70
2017-10-19T09:38:48.242Z,81.90
2017-10-19T09:41:17.072Z,81.90
2017-10-19T09:43:44.547Z,81.90
2017-10-19T09:46:12.017Z,81.70
2017-10-19T09:48:39.480Z,81.60
2017-10-19T09:51:06.959Z,81.70
2017-10-19T09:53:35.215Z,81.50
2017-10-19T09:56:02.792Z,81.50
2017-10-19T09:58:31.029Z,80.50
2017-10-19T10:00:58.511Z,80.50
2017-10-19T10:03:26.065Z,80.20
2017-10-19T10:05:53.539Z,80.20
2017-10-19T10:08:21.811Z,80.30
2017-10-19T10:10:49.274Z,80.20
2017-10-19T10:13:17.527Z,81.00
2017-10-19T10:15:45.004Z,80.90
2017-10-19T10:18:13.257Z,80.60
2017-10-19T10:20:40.768Z,80.50
2017-10-19T10:23:08.848Z,80.50
2017-10-19T10:25:36.372Z,80.60
2017-10-19T10:28:04.629Z,80.30
2017-10-19T10:30:32.177Z,80.40
2017-10-19T10:32:59.751Z,80.70
2017-10-19T10:35:27.315Z,81.10
2017-10-19T10:37:54.777Z,80.40
2017-10-19T10:40:23.026Z,79.30
2017-10-19T10:42:50.603Z,79.10
2017-10-19T10:45:18.171Z,79.30
2017-10-19T10:47:46.405Z,79.90
2017-10-19T10:50:13.984Z,79.80
2017-10-19T10:52:41.469Z,80.00
2017-10-19T10:55:09.740Z,79.10
2017-10-19T10:57:38.050Z,79.10
2017-10-19T11:00:05.520Z,78.90
2017-10-19T11:02:33.000Z,79.00
2017-10-19T11:05:00.575Z,78.90
2017-10-19T11:07:28.995Z,78.20
2017-10-19T11:09:56.499Z,78.00
2017-10-19T11:12:23.983Z,77.70
2017-10-19T11:14:52.237Z,77.60
2017-10-19T11:17:19.839Z,77.50
2017-10-19T11:19:47.362Z,77.50
2017-10-19T11:22:14.928Z,77.50
2017-10-19T11:24:43.349Z,78.90
2017-10-19T11:27:10.814Z,78.30
2017-10-19T11:29:38.298Z,78.80
2017-10-19T11:32:05.775Z,78.80
2017-10-19T11:34:33.333Z,78.70
2017-10-19T11:37:00.966Z,79.20
2017-10-19T11:39:28.443Z,78.50
2017-10-19T11:41:55.937Z,79.60
2017-10-19T11:44:23.402Z,79.50
2017-10-19T11:46:50.968Z,79.70
2017-10-19T11:49:18.434Z,79.90
2017-10-19T11:51:45.919Z,80.20
2017-10-19T11:54:13.496Z,80.40
2017-10-19T11:56:42.057Z,80.40
2017-10-19T11:59:09.542Z,79.70
2017-10-19T12:01:37.802Z,80.80
2017-10-19T12:04:05.372Z,80.80
2017-10-19T12:06:32.911Z,80.40
2017-10-19T12:09:00.390Z,80.30
2017-10-19T12:11:28.621Z,80.70
2017-10-19T12:13:56.093Z,80.60
2017-10-19T12:16:23.568Z,80.70
2017-10-19T12:18:51.124Z,80.70
2017-10-19T12:21:18.850Z,80.20
2017-10-19T12:23:46.326Z,80.30
2017-10-19T12:26:13.798Z,80.50
2017-10-19T12:28:41.283Z,80.30
2017-10-19T12:31:09.542Z,80.30
2017-10-19T12:33:37.824Z,80.50
2017-10-19T12:36:06.057Z,80.60
2017-10-19T12:38:33.646Z,80.60
2017-10-19T12:41:01.712Z,80.70
2017-10-19T12:43:30.690Z,80.00
2017-10-19T12:45:58.170Z,79.90
2017-10-19T12:48:25.658Z,79.70
2017-10-19T12:50:53.138Z,80.00
2017-10-19T12:53:20.618Z,80.10
2017-10-19T12:55:48.199Z,79.50
2017-10-19T12:58:15.745Z,79.40
2017-10-19T13:00:43.218Z,80.10
2017-10-19T13:03:11.473Z,79.20
2017-10-19T13:05:38.958Z,79.20
2017-10-19T13:08:07.203Z,78.90
2017-10-19T13:10:34.673Z,78.80
2017-10-19T13:13:02.234Z,78.60
2017-10-19T13:15:29.715Z,78.80
2017-10-19T13:17:58.062Z,79.70
2017-10-19T13:20:25.565Z,79.70
2017-10-19T13:22:53.030Z,79.60
2017-10-19T13:25:20.504Z,79.50
2017-10-19T13:27:47.986Z,79.50
2017-10-19T13:30:15.444Z,79.70
2017-10-19T13:32:43.005Z,80.00
2017-10-19T13:35:11.242Z,80.50
2017-10-19T13:37:38.767Z,80.60
2017-10-19T13:40:07.032Z,80.70
2017-10-19T13:42:35.283Z,80.90
2017-10-19T13:45:04.325Z,80.60
2017-10-19T13:47:31.847Z,80.50
2017-10-19T13:49:59.343Z,80.20
2017-10-19T13:52:26.829Z,80.00
2017-10-19T13:54:54.318Z,80.60
2017-10-19T13:57:21.799Z,81.30
2017-10-19T13:59:50.054Z,81.40
2017-10-19T14:02:17.530Z,81.40
2017-10-19T14:04:45.816Z,81.70
2017-10-19T14:07:13.271Z,81.60
2017-10-19T14:09:40.798Z,81.90
2017-10-19T14:12:12.302Z,81.90
2017-10-19T14:14:39.800Z,81.50
2017-10-19T14:17:07.371Z,81.20
2017-10-19T14:19:34.850Z,81.10
2017-10-19T14:22:02.390Z,80.80
2017-10-19T14:24:30.645Z,80.80
2017-10-19T14:26:58.122Z,80.70
2017-10-19T14:29:26.360Z,81.50
2017-10-19T14:31:53.906Z,81.40
2017-10-19T14:34:21.370Z,81.40
2017-10-19T14:36:48.859Z,81.80
2017-10-19T14:39:17.207Z,82.10
2017-10-19T14:41:44.694Z,82.10
2017-10-19T14:44:12.182Z,82.30
2017-10-19T14:46:39.690Z,82.60
2017-10-19T14:49:07.162Z,82.60
2017-10-19T14:51:34.650Z,82.80
2017-10-19T14:54:02.132Z,82.60
2017-10-19T14:56:29.630Z,82.60
2017-10-19T14:58:57.233Z,83.00
2017-10-19T15:01:24.706Z,83.00
2017-10-19T15:03:52.188Z,82.90
2017-10-19T15:06:19.658Z,82.80
2017-10-19T15:08:47.141Z,82.80
2017-10-19T15:11:15.399Z,83.00
2017-10-19T15:13:42.921Z,83.00
2017-10-19T15:16:10.399Z,83.90
2017-10-19T15:18:37.889Z,83.60
2017-10-19T15:21:06.133Z,83.70
2017-10-19T15:23:33.710Z,83.70
2017-10-19T15:26:01.194Z,83.80
2017-10-19T15:28:28.695Z,84.00
2017-10-19T15:30:56.167Z,83.90
2017-10-19T15:33:23.649Z,83.80
2017-10-19T15:35:51.889Z,83.90
2017-10-19T15:38:19.394Z,83.80
2017-10-19T15:40:46.883Z,84.00
2017-10-19T15:43:14.358Z,84.00
2017-10-19T15:45:41.843Z,83.90
2017-10-19T15:48:09.354Z,83.90
2017-10-19T15:53:29.597Z,83.60
2017-10-19T15:55:57.138Z,83.80
2017-10-19T15:58:24.602Z,83.90
2017-10-19T16:00:52.069Z,83.90
2017-10-19T16:03:19.538Z,83.90
2017-10-19T16:05:47.788Z,84.80
2017-10-19T16:08:15.270Z,83.90
2017-10-19T16:10:43.539Z,84.00
2017-10-19T16:13:11.015Z,83.90
2017-10-19T16:15:39.270Z,84.30
2017-10-19T16:18:06.824Z,84.30
2017-10-19T16:20:34.386Z,84.40
2017-10-19T16:23:01.965Z,84.40
2017-10-19T16:25:30.192Z,84.50
2017-10-19T16:27:57.672Z,84.40
2017-10-19T16:30:25.225Z,84.50
2017-10-19T16:32:52.767Z,84.60
2017-10-19T16:35:20.254Z,84.40
2017-10-19T16:37:48.497Z,85.60
2017-10-19T16:40:15.960Z,84.70
2017-10-19T16:42:43.538Z,84.80
2017-10-19T16:45:11.013Z,84.80
2017-10-19T16:47:39.259Z,84.90
2017-10-19T16:50:06.842Z,84.90
2017-10-19T16:52:34.340Z,84.90
2017-10-19T16:55:01.836Z,84.80
2017-10-19T16:57:29.355Z,84.80
2017-10-19T16:59:56.835Z,84.80
2017-10-19T17:02:24.302Z,84.80
2017-10-19T17:04:51.778Z,84.80
2017-10-19T17:07:19.243Z,84.70
2017-10-19T17:09:47.488Z,84.60
2017-10-19T17:12:14.967Z,84.60
2017-10-19T17:14:42.526Z,84.50
2017-10-19T17:17:10.073Z,84.70
2017-10-19T17:19:37.639Z,84.70
2017-10-19T17:22:05.101Z,84.70
2017-10-19T17:24:32.668Z,85.00
2017-10-19T17:27:00.959Z,86.50
2017-10-19T17:29:29.197Z,85.70
2017-10-19T17:31:56.757Z,85.60
2017-10-19T17:34:24.313Z,85.50
2017-10-19T17:36:51.786Z,85.30
2017-10-19T17:39:19.242Z,85.40
2017-10-19T17:41:46.721Z,85.40
2017-10-19T17:44:14.949Z,85.30
2017-10-19T17:46:42.413Z,85.30
2017-10-19T17:49:09.882Z,85.50
2017-10-19T17:51:37.363Z,85.60
2017-10-19T17:54:05.613Z,86.00
2017-10-19T17:56:33.176Z,85.90
2017-10-19T17:59:01.427Z,85.40
2017-10-19T18:01:28.898Z,85.90
2017-10-19T18:03:56.366Z,86.00
2017-10-19T18:06:23.918Z,85.80
2017-10-19T18:08:51.482Z,85.90
2017-10-19T18:11:19.038Z,86.10
2017-10-19T18:13:46.590Z,86.10
2017-10-19T18:16:14.109Z,86.10
2017-10-19T18:18:41.581Z,86.00
2017-10-19T18:21:09.091Z,86.20
2017-10-19T18:23:37.341Z,86.40
2017-10-19T18:26:04.942Z,86.20
2017-10-19T18:28:32.414Z,86.30
2017-10-19T18:30:59.873Z,86.50
2017-10-19T18:33:27.366Z,86.70
2017-10-19T18:35:54.845Z,86.80
2017-10-19T18:38:23.082Z,87.10
2017-10-19T18:40:50.554Z,87.10
2017-10-19T18:43:18.037Z,87.00
2017-10-19T18:45:46.289Z,87.50
2017-10-19T18:48:13.774Z,87.30
2017-10-19T18:50:42.015Z,87.20
2017-10-19T18:53:09.490Z,87.20
2017-10-19T18:55:36.969Z,87.50
2017-10-19T18:58:05.215Z,87.60
2017-10-19T19:00:32.710Z,87.50
2017-10-19T19:03:00.217Z,87.50
2017-10-19T19:05:27.699Z,87.40
2017-10-19T19:07:55.166Z,87.50
2017-10-19T19:10:23.415Z,87.30
2017-10-19T19:12:50.886Z,87.30
2017-10-19T19:15:19.150Z,87.40
2017-10-19T19:17:46.684Z,87.30
2017-10-19T19:20:14.187Z,87.20
2017-10-19T19:22:43.128Z,87.30
2017-10-19T19:25:10.632Z,87.20
2017-10-19T19:27:38.947Z,87.30
2017-10-19T19:30:06.462Z,87.30
2017-10-19T19:32:34.726Z,87.30
2017-10-19T19:35:02.286Z,87.30
2017-10-19T19:37:29.767Z,87.20
2017-10-19T19:39:58.015Z,87.30
2017-10-19T19:42:25.481Z,87.20
2017-10-19T19:44:53.705Z,87.50
2017-10-19T19:47:21.206Z,87.20
2017-10-19T19:49:48.713Z,87.20
2017-10-19T19:52:16.192Z,87.40
2017-10-19T19:54:43.658Z,87.40
2017-10-19T19:57:11.234Z,87.60
2017-10-19T19:59:38.797Z,87.60
2017-10-19T20:02:06.316Z,87.60
2017-10-19T20:04:33.798Z,87.60
2017-10-19T20:07:01.299Z,87.50
2017-10-19T20:09:28.771Z,87.60
2017-10-19T20:11:56.236Z,87.70
2017-10-19T20:14:23.710Z,87.70
2017-10-19T20:16:51.198Z,87.70
2017-10-19T20:19:18.758Z,87.70
2017-10-19T20:21:47.047Z,87.80
2017-10-19T20:24:15.351Z,87.70
2017-10-19T20:26:42.822Z,87.70
2017-10-19T20:29:10.301Z,87.70
2017-10-19T20:31:37.781Z,87.60
2017-10-19T20:34:05.278Z,87.90
2017-10-19T20:36:32.745Z,87.90
2017-10-19T20:39:00.348Z,87.90
2017-10-19T20:41:27.917Z,88.00
2017-10-19T20:43:55.467Z,88.00
2017-10-19T20:46:23.034Z,88.90
2017-10-19T20:48:51.278Z,88.00
2017-10-19T20:51:18.746Z,87.80
2017-10-19T20:53:46.305Z,87.90
2017-10-19T20:56:13.896Z,88.00
2017-10-19T20:58:42.143Z,88.20
2017-10-19T21:01:11.152Z,88.20
2017-10-19T21:03:39.397Z,88.10
2017-10-19T21:06:06.865Z,88.10
2017-10-19T21:08:34.347Z,88.10
2017-10-19T21:11:02.606Z,88.30
2017-10-19T21:13:30.082Z,88.20
2017-10-19T21:15:58.392Z,88.00
2017-10-19T21:18:25.852Z,87.90
2017-10-19T21:20:53.364Z,88.10
2017-10-19T21:23:20.842Z,88.10
2017-10-19T21:25:48.306Z,87.30
2017-10-19T21:28:15.833Z,88.00
2017-10-19T21:30:43.393Z,88.00
2017-10-19T21:33:10.870Z,88.10
2017-10-19T21:35:38.339Z,88.10
2017-10-19T21:38:05.833Z,88.00
2017-10-19T21:40:33.316Z,88.00
2017-10-19T21:43:00.795Z,88.00
2017-10-19T21:45:29.031Z,88.20
2017-10-19T21:47:56.513Z,88.00
2017-10-19T21:50:24.758Z,88.10
2017-10-19T21:52:52.287Z,88.10
2017-10-19T21:55:19.754Z,88.00
2017-10-19T21:57:47.239Z,88.10
2017-10-19T22:00:14.746Z,88.50
2017-10-19T22:02:42.271Z,88.30
2017-10-19T22:05:09.742Z,88.30
2017-10-19T22:07:37.985Z,88.50
2017-10-19T22:10:05.503Z,88.50
2017-10-19T22:12:32.969Z,88.40
2017-10-19T22:15:00.438Z,88.40
2017-10-19T22:17:27.916Z,88.40
2017-10-19T22:19:55.393Z,88.20
2017-10-19T22:22:23.670Z,88.30
2017-10-19T22:24:51.926Z,88.30
2017-10-19T22:27:19.397Z,88.30
2017-10-19T22:29:46.865Z,88.40
2017-10-19T22:32:15.115Z,88.50
2017-10-19T22:34:42.616Z,88.50
2017-10-19T22:37:10.090Z,88.60
2017-10-19T22:39:37.644Z,88.50
2017-10-19T22:42:05.163Z,88.60
2017-10-19T22:44:32.638Z,88.50
2017-10-19T22:47:00.993Z,88.70
2017-10-19T22:49:29.238Z,88.60
2017-10-19T22:51:56.719Z,88.40
2017-10-19T22:54:24.195Z,88.70
2017-10-19T22:56:51.666Z,89.80
2017-10-19T22:59:19.146Z,88.70
2017-10-19T23:01:46.658Z,88.90
2017-10-19T23:04:14.912Z,88.70
2017-10-19T23:06:42.390Z,88.60
2017-10-19T23:09:10.654Z,88.50
2017-10-19T23:11:38.117Z,88.50
2017-10-19T23:14:06.354Z,89.20
2017-10-19T23:16:33.965Z,88.60
2017-10-19T23:19:02.272Z,88.70
2017-10-19T23:21:29.751Z,88.70
2017-10-19T23:23:57.346Z,88.60
2017-10-19T23:26:25.592Z,88.50
2017-10-19T23:28:53.072Z,88.50
2017-10-19T23:31:20.538Z,88.50
2017-10-19T23:33:48.853Z,88.40
2017-10-19T23:36:16.321Z,88.30
2017-10-19T23:38:43.797Z,88.30
2017-10-19T23:41:11.279Z,88.20
2017-10-19T23:43:38.749Z,88.10
2017-10-19T23:46:06.979Z,88.40
2017-10-19T23:48:34.478Z,88.20
2017-10-19T23:51:02.719Z,88.20
2017-10-19T23:53:30.306Z,88.00
2017-10-19T23:55:58.622Z,88.00
2017-10-19T23:58:26.130Z,88.00
